sensor_id;sensor_type;location;lat;lon;timestamp;P1;durP1;ratioP1;P2;durP2;ratioP2
73239;SDS011;61452;40.054;4.110;2023-12-20T00:04:46;4.15;;;1.45;;
73239;SDS011;61452;40.054;4.110;2023-12-20T00:09:48;4.00;;;1.80;;
73239;SDS011;61452;40.054;4.110;2023-12-20T00:14:50;2.53;;;1.23;;
73239;SDS011;61452;40.054;4.110;2023-12-20T00:19:52;2.70;;;1.63;;
73239;SDS011;61452;40.054;4.110;2023-12-20T00:24:54;3.13;;;1.77;;
73239;SDS011;61452;40.054;4.110;2023-12-20T00:29:57;2.88;;;1.50;;
73239;SDS011;61452;40.054;4.110;2023-12-20T00:34:58;3.83;;;1.80;;
73239;SDS011;61452;40.054;4.110;2023-12-20T00:40:00;7.47;;;2.13;;
73239;SDS011;61452;40.054;4.110;2023-12-20T00:45:03;2.85;;;1.30;;
73239;SDS011;61452;40.054;4.110;2023-12-20T00:50:06;3.65;;;1.63;;
73239;SDS011;61452;40.054;4.110;2023-12-20T00:55:09;4.90;;;1.80;;
73239;SDS011;61452;40.054;4.110;2023-12-20T01:00:14;2.20;;;1.23;;
73239;SDS011;61452;40.054;4.110;2023-12-20T01:05:17;2.83;;;1.58;;
73239;SDS011;61452;40.054;4.110;2023-12-20T01:10:21;3.25;;;1.65;;
73239;SDS011;61452;40.054;4.110;2023-12-20T01:15:24;2.75;;;1.50;;
73239;SDS011;61452;40.054;4.110;2023-12-20T01:20:26;3.88;;;1.45;;
73239;SDS011;61452;40.054;4.110;2023-12-20T01:25:28;2.53;;;1.40;;
73239;SDS011;61452;40.054;4.110;2023-12-20T01:30:30;3.63;;;1.60;;
73239;SDS011;61452;40.054;4.110;2023-12-20T01:35:32;2.95;;;1.55;;
73239;SDS011;61452;40.054;4.110;2023-12-20T01:40:34;2.40;;;1.10;;
73239;SDS011;61452;40.054;4.110;2023-12-20T01:45:36;3.70;;;1.33;;
73239;SDS011;61452;40.054;4.110;2023-12-20T01:50:38;2.55;;;1.20;;
73239;SDS011;61452;40.054;4.110;2023-12-20T01:55:41;3.92;;;1.50;;
73239;SDS011;61452;40.054;4.110;2023-12-20T02:00:44;3.22;;;1.42;;
73239;SDS011;61452;40.054;4.110;2023-12-20T02:05:47;2.78;;;1.38;;
73239;SDS011;61452;40.054;4.110;2023-12-20T02:10:49;3.95;;;1.50;;
73239;SDS011;61452;40.054;4.110;2023-12-20T02:15:52;2.22;;;1.20;;
73239;SDS011;61452;40.054;4.110;2023-12-20T02:20:54;1.90;;;1.30;;
73239;SDS011;61452;40.054;4.110;2023-12-20T02:25:57;4.05;;;1.50;;
73239;SDS011;61452;40.054;4.110;2023-12-20T02:30:59;3.10;;;1.40;;
73239;SDS011;61452;40.054;4.110;2023-12-20T02:36:01;2.13;;;1.20;;
73239;SDS011;61452;40.054;4.110;2023-12-20T02:41:04;4.25;;;1.13;;
73239;SDS011;61452;40.054;4.110;2023-12-20T02:46:06;2.55;;;1.50;;
73239;SDS011;61452;40.054;4.110;2023-12-20T02:51:08;3.90;;;1.45;;
73239;SDS011;61452;40.054;4.110;2023-12-20T02:56:10;3.55;;;1.38;;
73239;SDS011;61452;40.054;4.110;2023-12-20T03:01:12;3.85;;;1.33;;
73239;SDS011;61452;40.054;4.110;2023-12-20T03:06:20;2.90;;;1.20;;
73239;SDS011;61452;40.054;4.110;2023-12-20T03:11:26;3.22;;;1.20;;
73239;SDS011;61452;40.054;4.110;2023-12-20T03:16:29;2.22;;;1.10;;
73239;SDS011;61452;40.054;4.110;2023-12-20T03:21:34;2.17;;;1.20;;
73239;SDS011;61452;40.054;4.110;2023-12-20T03:26:36;2.45;;;1.10;;
73239;SDS011;61452;40.054;4.110;2023-12-20T03:31:38;2.75;;;1.00;;
73239;SDS011;61452;40.054;4.110;2023-12-20T03:36:40;1.50;;;0.90;;
73239;SDS011;61452;40.054;4.110;2023-12-20T03:41:42;2.85;;;1.17;;
73239;SDS011;61452;40.054;4.110;2023-12-20T03:46:44;3.00;;;0.98;;
73239;SDS011;61452;40.054;4.110;2023-12-20T03:51:47;4.15;;;1.10;;
73239;SDS011;61452;40.054;4.110;2023-12-20T03:56:49;2.05;;;1.00;;
73239;SDS011;61452;40.054;4.110;2023-12-20T04:01:52;2.53;;;1.00;;
73239;SDS011;61452;40.054;4.110;2023-12-20T04:06:54;2.35;;;1.08;;
73239;SDS011;61452;40.054;4.110;2023-12-20T04:11:56;3.45;;;1.00;;
73239;SDS011;61452;40.054;4.110;2023-12-20T04:16:58;4.05;;;1.00;;
73239;SDS011;61452;40.054;4.110;2023-12-20T04:22:01;3.38;;;1.35;;
73239;SDS011;61452;40.054;4.110;2023-12-20T04:27:03;1.92;;;1.08;;
73239;SDS011;61452;40.054;4.110;2023-12-20T04:32:05;3.00;;;1.20;;
73239;SDS011;61452;40.054;4.110;2023-12-20T04:37:07;3.45;;;1.15;;
73239;SDS011;61452;40.054;4.110;2023-12-20T04:42:09;3.90;;;1.20;;
73239;SDS011;61452;40.054;4.110;2023-12-20T04:47:12;2.25;;;1.02;;
73239;SDS011;61452;40.054;4.110;2023-12-20T04:52:20;2.83;;;1.20;;
73239;SDS011;61452;40.054;4.110;2023-12-20T04:57:23;3.33;;;1.08;;
73239;SDS011;61452;40.054;4.110;2023-12-20T05:02:25;4.05;;;1.10;;
73239;SDS011;61452;40.054;4.110;2023-12-20T05:07:27;3.50;;;1.00;;
73239;SDS011;61452;40.054;4.110;2023-12-20T05:12:29;2.30;;;0.93;;
73239;SDS011;61452;40.054;4.110;2023-12-20T05:17:32;2.25;;;1.15;;
73239;SDS011;61452;40.054;4.110;2023-12-20T05:22:34;2.50;;;1.00;;
73239;SDS011;61452;40.054;4.110;2023-12-20T05:27:36;4.43;;;0.93;;
73239;SDS011;61452;40.054;4.110;2023-12-20T05:32:38;2.72;;;1.00;;
73239;SDS011;61452;40.054;4.110;2023-12-20T05:37:41;4.03;;;1.27;;
73239;SDS011;61452;40.054;4.110;2023-12-20T05:42:44;3.72;;;1.10;;
73239;SDS011;61452;40.054;4.110;2023-12-20T05:47:46;3.85;;;0.93;;
73239;SDS011;61452;40.054;4.110;2023-12-20T05:52:48;2.35;;;1.30;;
73239;SDS011;61452;40.054;4.110;2023-12-20T05:57:50;2.90;;;0.90;;
73239;SDS011;61452;40.054;4.110;2023-12-20T06:02:52;2.28;;;1.00;;
73239;SDS011;61452;40.054;4.110;2023-12-20T06:07:54;1.73;;;0.73;;
73239;SDS011;61452;40.054;4.110;2023-12-20T06:12:58;2.60;;;0.98;;
73239;SDS011;61452;40.054;4.110;2023-12-20T06:28:06;2.83;;;1.25;;
73239;SDS011;61452;40.054;4.110;2023-12-20T06:33:09;4.18;;;0.93;;
73239;SDS011;61452;40.054;4.110;2023-12-20T06:38:13;2.97;;;1.50;;
73239;SDS011;61452;40.054;4.110;2023-12-20T06:43:15;3.95;;;1.10;;
73239;SDS011;61452;40.054;4.110;2023-12-20T06:48:37;3.85;;;1.20;;
73239;SDS011;61452;40.054;4.110;2023-12-20T06:53:39;1.48;;;0.93;;
73239;SDS011;61452;40.054;4.110;2023-12-20T06:58:41;4.50;;;1.52;;
73239;SDS011;61452;40.054;4.110;2023-12-20T07:03:43;5.65;;;1.50;;
73239;SDS011;61452;40.054;4.110;2023-12-20T07:08:45;2.92;;;1.30;;
73239;SDS011;61452;40.054;4.110;2023-12-20T07:13:47;4.47;;;1.52;;
73239;SDS011;61452;40.054;4.110;2023-12-20T07:18:50;5.25;;;1.33;;
73239;SDS011;61452;40.054;4.110;2023-12-20T07:23:54;3.58;;;1.30;;
73239;SDS011;61452;40.054;4.110;2023-12-20T07:28:56;4.82;;;1.45;;
73239;SDS011;61452;40.054;4.110;2023-12-20T07:34:00;4.40;;;1.65;;
73239;SDS011;61452;40.054;4.110;2023-12-20T07:39:02;3.22;;;1.40;;
73239;SDS011;61452;40.054;4.110;2023-12-20T07:44:04;5.15;;;1.50;;
73239;SDS011;61452;40.054;4.110;2023-12-20T07:49:07;5.03;;;1.15;;
73239;SDS011;61452;40.054;4.110;2023-12-20T07:54:10;4.78;;;1.58;;
73239;SDS011;61452;40.054;4.110;2023-12-20T07:59:12;4.43;;;1.30;;
73239;SDS011;61452;40.054;4.110;2023-12-20T08:04:30;3.42;;;1.73;;
73239;SDS011;61452;40.054;4.110;2023-12-20T08:09:32;2.78;;;0.90;;
73239;SDS011;61452;40.054;4.110;2023-12-20T08:14:35;3.40;;;1.38;;
73239;SDS011;61452;40.054;4.110;2023-12-20T08:19:37;4.43;;;1.63;;
73239;SDS011;61452;40.054;4.110;2023-12-20T08:24:39;3.00;;;1.33;;
73239;SDS011;61452;40.054;4.110;2023-12-20T08:29:43;3.33;;;1.20;;
73239;SDS011;61452;40.054;4.110;2023-12-20T08:34:46;2.70;;;1.25;;
73239;SDS011;61452;40.054;4.110;2023-12-20T08:39:48;3.38;;;1.45;;
73239;SDS011;61452;40.054;4.110;2023-12-20T08:44:51;2.83;;;0.98;;
73239;SDS011;61452;40.054;4.110;2023-12-20T08:49:53;3.00;;;1.13;;
73239;SDS011;61452;40.054;4.110;2023-12-20T08:55:00;2.15;;;1.50;;
73239;SDS011;61452;40.054;4.110;2023-12-20T09:00:02;2.83;;;1.42;;
73239;SDS011;61452;40.054;4.110;2023-12-20T09:05:07;2.42;;;1.05;;
73239;SDS011;61452;40.054;4.110;2023-12-20T09:10:09;1.83;;;1.00;;
73239;SDS011;61452;40.054;4.110;2023-12-20T09:15:11;2.60;;;1.10;;
73239;SDS011;61452;40.054;4.110;2023-12-20T09:20:13;3.03;;;1.20;;
73239;SDS011;61452;40.054;4.110;2023-12-20T09:25:16;3.17;;;1.50;;
73239;SDS011;61452;40.054;4.110;2023-12-20T09:30:19;3.35;;;1.10;;
73239;SDS011;61452;40.054;4.110;2023-12-20T09:35:28;2.95;;;1.00;;
73239;SDS011;61452;40.054;4.110;2023-12-20T09:40:30;3.33;;;1.10;;
73239;SDS011;61452;40.054;4.110;2023-12-20T09:45:35;2.20;;;0.90;;
73239;SDS011;61452;40.054;4.110;2023-12-20T09:50:37;3.90;;;1.35;;
73239;SDS011;61452;40.054;4.110;2023-12-20T09:55:39;3.17;;;1.10;;
73239;SDS011;61452;40.054;4.110;2023-12-20T10:00:43;3.17;;;1.23;;
73239;SDS011;61452;40.054;4.110;2023-12-20T10:05:45;3.17;;;1.13;;
73239;SDS011;61452;40.054;4.110;2023-12-20T10:10:51;3.67;;;1.20;;
73239;SDS011;61452;40.054;4.110;2023-12-20T10:15:54;3.78;;;1.60;;
73239;SDS011;61452;40.054;4.110;2023-12-20T10:20:57;3.63;;;1.42;;
73239;SDS011;61452;40.054;4.110;2023-12-20T10:25:59;2.90;;;1.10;;
73239;SDS011;61452;40.054;4.110;2023-12-20T10:31:02;3.40;;;1.50;;
73239;SDS011;61452;40.054;4.110;2023-12-20T10:36:04;3.60;;;1.08;;
73239;SDS011;61452;40.054;4.110;2023-12-20T10:41:07;5.20;;;1.30;;
73239;SDS011;61452;40.054;4.110;2023-12-20T10:46:11;2.90;;;1.10;;
73239;SDS011;61452;40.054;4.110;2023-12-20T10:51:14;3.45;;;1.30;;
73239;SDS011;61452;40.054;4.110;2023-12-20T10:56:19;3.70;;;1.23;;
73239;SDS011;61452;40.054;4.110;2023-12-20T11:01:25;3.22;;;1.25;;
73239;SDS011;61452;40.054;4.110;2023-12-20T11:12:20;3.53;;;1.33;;
73239;SDS011;61452;40.054;4.110;2023-12-20T11:17:16;4.15;;;1.20;;
73239;SDS011;61452;40.054;4.110;2023-12-20T11:22:26;5.60;;;1.95;;
73239;SDS011;61452;40.054;4.110;2023-12-20T11:27:41;7.43;;;1.70;;
73239;SDS011;61452;40.054;4.110;2023-12-20T11:32:50;4.13;;;1.35;;
73239;SDS011;61452;40.054;4.110;2023-12-20T11:37:53;5.03;;;1.73;;
73239;SDS011;61452;40.054;4.110;2023-12-20T11:42:55;3.60;;;1.67;;
73239;SDS011;61452;40.054;4.110;2023-12-20T11:47:57;4.20;;;1.30;;
73239;SDS011;61452;40.054;4.110;2023-12-20T11:53:00;4.50;;;1.85;;
73239;SDS011;61452;40.054;4.110;2023-12-20T11:58:02;7.13;;;1.80;;
73239;SDS011;61452;40.054;4.110;2023-12-20T12:03:04;6.97;;;1.80;;
73239;SDS011;61452;40.054;4.110;2023-12-20T12:08:07;4.55;;;1.40;;
73239;SDS011;61452;40.054;4.110;2023-12-20T12:13:09;7.68;;;1.70;;
73239;SDS011;61452;40.054;4.110;2023-12-20T12:18:15;7.90;;;1.80;;
73239;SDS011;61452;40.054;4.110;2023-12-20T12:23:24;8.65;;;1.80;;
73239;SDS011;61452;40.054;4.110;2023-12-20T12:28:26;9.50;;;1.88;;
73239;SDS011;61452;40.054;4.110;2023-12-20T12:33:30;10.18;;;1.92;;
73239;SDS011;61452;40.054;4.110;2023-12-20T12:38:32;6.03;;;1.75;;
73239;SDS011;61452;40.054;4.110;2023-12-20T12:43:34;10.38;;;3.08;;
73239;SDS011;61452;40.054;4.110;2023-12-20T12:48:37;11.20;;;2.30;;
73239;SDS011;61452;40.054;4.110;2023-12-20T12:53:42;9.82;;;2.70;;
73239;SDS011;61452;40.054;4.110;2023-12-20T12:58:44;7.30;;;1.77;;
73239;SDS011;61452;40.054;4.110;2023-12-20T13:03:47;5.57;;;1.65;;
73239;SDS011;61452;40.054;4.110;2023-12-20T13:08:49;10.73;;;2.35;;
73239;SDS011;61452;40.054;4.110;2023-12-20T13:13:51;9.05;;;2.60;;
73239;SDS011;61452;40.054;4.110;2023-12-20T13:18:53;9.55;;;2.58;;
73239;SDS011;61452;40.054;4.110;2023-12-20T13:23:56;14.07;;;3.28;;
73239;SDS011;61452;40.054;4.110;2023-12-20T13:28:58;11.50;;;2.40;;
73239;SDS011;61452;40.054;4.110;2023-12-20T13:34:00;10.82;;;2.65;;
73239;SDS011;61452;40.054;4.110;2023-12-20T13:39:03;14.35;;;2.92;;
73239;SDS011;61452;40.054;4.110;2023-12-20T13:44:06;16.25;;;3.10;;
73239;SDS011;61452;40.054;4.110;2023-12-20T13:49:08;14.65;;;2.55;;
73239;SDS011;61452;40.054;4.110;2023-12-20T13:54:11;13.18;;;2.42;;
73239;SDS011;61452;40.054;4.110;2023-12-20T13:59:13;13.45;;;2.92;;
73239;SDS011;61452;40.054;4.110;2023-12-20T14:04:16;12.75;;;2.78;;
73239;SDS011;61452;40.054;4.110;2023-12-20T14:09:38;11.95;;;2.75;;
73239;SDS011;61452;40.054;4.110;2023-12-20T14:14:41;13.60;;;3.20;;
73239;SDS011;61452;40.054;4.110;2023-12-20T14:19:43;15.50;;;3.05;;
73239;SDS011;61452;40.054;4.110;2023-12-20T14:24:45;14.32;;;2.95;;
73239;SDS011;61452;40.054;4.110;2023-12-20T14:29:47;13.70;;;3.05;;
73239;SDS011;61452;40.054;4.110;2023-12-20T14:34:49;10.48;;;3.45;;
73239;SDS011;61452;40.054;4.110;2023-12-20T14:39:52;10.27;;;2.47;;
73239;SDS011;61452;40.054;4.110;2023-12-20T14:44:54;14.95;;;2.90;;
73239;SDS011;61452;40.054;4.110;2023-12-20T14:49:56;12.90;;;2.90;;
73239;SDS011;61452;40.054;4.110;2023-12-20T14:54:58;13.98;;;2.85;;
73239;SDS011;61452;40.054;4.110;2023-12-20T15:00:00;8.73;;;2.35;;
73239;SDS011;61452;40.054;4.110;2023-12-20T15:05:02;14.00;;;2.45;;
73239;SDS011;61452;40.054;4.110;2023-12-20T15:10:05;12.10;;;2.33;;
73239;SDS011;61452;40.054;4.110;2023-12-20T15:15:07;9.48;;;1.98;;
73239;SDS011;61452;40.054;4.110;2023-12-20T15:20:11;9.07;;;2.47;;
73239;SDS011;61452;40.054;4.110;2023-12-20T15:25:13;13.05;;;3.30;;
73239;SDS011;61452;40.054;4.110;2023-12-20T15:30:22;11.85;;;2.78;;
73239;SDS011;61452;40.054;4.110;2023-12-20T15:35:27;12.65;;;2.70;;
73239;SDS011;61452;40.054;4.110;2023-12-20T15:40:29;15.98;;;3.20;;
73239;SDS011;61452;40.054;4.110;2023-12-20T15:45:32;17.08;;;2.63;;
73239;SDS011;61452;40.054;4.110;2023-12-20T15:50:34;14.30;;;3.13;;
73239;SDS011;61452;40.054;4.110;2023-12-20T15:55:37;16.80;;;2.63;;
73239;SDS011;61452;40.054;4.110;2023-12-20T16:00:39;11.70;;;3.08;;
73239;SDS011;61452;40.054;4.110;2023-12-20T16:05:41;19.42;;;4.00;;
73239;SDS011;61452;40.054;4.110;2023-12-20T16:10:44;12.75;;;2.95;;
73239;SDS011;61452;40.054;4.110;2023-12-20T16:15:45;14.70;;;3.00;;
73239;SDS011;61452;40.054;4.110;2023-12-20T16:20:48;19.50;;;3.35;;
73239;SDS011;61452;40.054;4.110;2023-12-20T16:25:50;11.73;;;3.13;;
73239;SDS011;61452;40.054;4.110;2023-12-20T16:30:52;18.35;;;3.67;;
73239;SDS011;61452;40.054;4.110;2023-12-20T16:35:58;16.95;;;3.75;;
73239;SDS011;61452;40.054;4.110;2023-12-20T16:41:00;16.75;;;3.95;;
73239;SDS011;61452;40.054;4.110;2023-12-20T16:46:02;20.75;;;4.53;;
73239;SDS011;61452;40.054;4.110;2023-12-20T16:51:07;17.92;;;4.93;;
73239;SDS011;61452;40.054;4.110;2023-12-20T16:56:09;22.90;;;4.50;;
73239;SDS011;61452;40.054;4.110;2023-12-20T17:01:11;15.68;;;4.05;;
73239;SDS011;61452;40.054;4.110;2023-12-20T17:11:17;17.50;;;4.55;;
73239;SDS011;61452;40.054;4.110;2023-12-20T17:16:20;18.80;;;4.22;;
73239;SDS011;61452;40.054;4.110;2023-12-20T17:21:22;21.30;;;4.90;;
73239;SDS011;61452;40.054;4.110;2023-12-20T17:26:24;16.05;;;4.72;;
73239;SDS011;61452;40.054;4.110;2023-12-20T17:31:27;20.63;;;4.53;;
73239;SDS011;61452;40.054;4.110;2023-12-20T17:36:29;24.60;;;5.30;;
73239;SDS011;61452;40.054;4.110;2023-12-20T17:41:31;22.60;;;5.63;;
73239;SDS011;61452;40.054;4.110;2023-12-20T17:46:34;22.02;;;6.22;;
73239;SDS011;61452;40.054;4.110;2023-12-20T17:51:36;23.90;;;5.28;;
73239;SDS011;61452;40.054;4.110;2023-12-20T17:56:39;20.38;;;5.30;;
73239;SDS011;61452;40.054;4.110;2023-12-20T18:01:41;24.42;;;4.85;;
73239;SDS011;61452;40.054;4.110;2023-12-20T18:06:43;25.42;;;5.82;;
73239;SDS011;61452;40.054;4.110;2023-12-20T18:11:46;29.88;;;6.93;;
73239;SDS011;61452;40.054;4.110;2023-12-20T18:16:48;24.67;;;5.53;;
73239;SDS011;61452;40.054;4.110;2023-12-20T18:21:50;20.23;;;4.95;;
73239;SDS011;61452;40.054;4.110;2023-12-20T18:26:53;22.45;;;5.18;;
73239;SDS011;61452;40.054;4.110;2023-12-20T18:31:55;20.27;;;6.03;;
73239;SDS011;61452;40.054;4.110;2023-12-20T18:36:57;27.38;;;5.43;;
73239;SDS011;61452;40.054;4.110;2023-12-20T18:41:59;24.27;;;6.28;;
73239;SDS011;61452;40.054;4.110;2023-12-20T18:47:01;27.95;;;5.55;;
73239;SDS011;61452;40.054;4.110;2023-12-20T18:52:04;24.25;;;5.78;;
73239;SDS011;61452;40.054;4.110;2023-12-20T19:02:11;22.95;;;5.50;;
73239;SDS011;61452;40.054;4.110;2023-12-20T19:07:14;24.38;;;6.10;;
73239;SDS011;61452;40.054;4.110;2023-12-20T19:12:16;21.85;;;5.70;;
73239;SDS011;61452;40.054;4.110;2023-12-20T19:17:18;19.52;;;5.07;;
73239;SDS011;61452;40.054;4.110;2023-12-20T19:22:21;19.83;;;5.00;;
73239;SDS011;61452;40.054;4.110;2023-12-20T19:27:24;20.83;;;5.28;;
73239;SDS011;61452;40.054;4.110;2023-12-20T19:32:26;21.02;;;5.45;;
73239;SDS011;61452;40.054;4.110;2023-12-20T19:37:29;21.75;;;5.28;;
73239;SDS011;61452;40.054;4.110;2023-12-20T19:42:31;20.92;;;5.05;;
73239;SDS011;61452;40.054;4.110;2023-12-20T19:47:37;23.15;;;5.13;;
73239;SDS011;61452;40.054;4.110;2023-12-20T19:52:39;20.95;;;5.80;;
73239;SDS011;61452;40.054;4.110;2023-12-20T19:57:41;24.40;;;5.00;;
73239;SDS011;61452;40.054;4.110;2023-12-20T20:02:44;29.23;;;6.32;;
73239;SDS011;61452;40.054;4.110;2023-12-20T20:07:46;28.45;;;6.15;;
73239;SDS011;61452;40.054;4.110;2023-12-20T20:12:48;21.70;;;5.30;;
73239;SDS011;61452;40.054;4.110;2023-12-20T20:17:50;27.25;;;5.40;;
73239;SDS011;61452;40.054;4.110;2023-12-20T20:22:52;23.48;;;5.10;;
73239;SDS011;61452;40.054;4.110;2023-12-20T20:27:54;29.85;;;5.68;;
73239;SDS011;61452;40.054;4.110;2023-12-20T20:32:56;25.25;;;5.63;;
73239;SDS011;61452;40.054;4.110;2023-12-20T20:37:58;24.90;;;5.72;;
73239;SDS011;61452;40.054;4.110;2023-12-20T20:43:00;32.33;;;6.13;;
73239;SDS011;61452;40.054;4.110;2023-12-20T20:48:02;25.92;;;6.20;;
73239;SDS011;61452;40.054;4.110;2023-12-20T20:53:25;31.90;;;6.47;;
73239;SDS011;61452;40.054;4.110;2023-12-20T20:58:27;25.92;;;6.07;;
73239;SDS011;61452;40.054;4.110;2023-12-20T21:03:29;27.10;;;6.40;;
73239;SDS011;61452;40.054;4.110;2023-12-20T21:08:31;29.17;;;6.72;;
73239;SDS011;61452;40.054;4.110;2023-12-20T21:13:34;24.88;;;6.25;;
73239;SDS011;61452;40.054;4.110;2023-12-20T21:18:43;28.23;;;5.75;;
73239;SDS011;61452;40.054;4.110;2023-12-20T21:23:47;24.55;;;6.47;;
73239;SDS011;61452;40.054;4.110;2023-12-20T21:28:50;23.65;;;5.72;;
73239;SDS011;61452;40.054;4.110;2023-12-20T21:33:52;28.75;;;6.28;;
73239;SDS011;61452;40.054;4.110;2023-12-20T21:38:54;28.50;;;5.93;;
73239;SDS011;61452;40.054;4.110;2023-12-20T21:43:56;23.75;;;5.78;;
73239;SDS011;61452;40.054;4.110;2023-12-20T21:48:59;24.73;;;5.70;;
73239;SDS011;61452;40.054;4.110;2023-12-20T21:54:01;20.88;;;6.95;;
73239;SDS011;61452;40.054;4.110;2023-12-20T21:59:05;27.77;;;6.30;;
73239;SDS011;61452;40.054;4.110;2023-12-20T22:04:07;26.42;;;5.97;;
73239;SDS011;61452;40.054;4.110;2023-12-20T22:09:10;32.20;;;6.45;;
73239;SDS011;61452;40.054;4.110;2023-12-20T22:14:12;22.85;;;5.80;;
73239;SDS011;61452;40.054;4.110;2023-12-20T22:19:14;27.52;;;6.00;;
73239;SDS011;61452;40.054;4.110;2023-12-20T22:24:16;31.10;;;6.80;;
73239;SDS011;61452;40.054;4.110;2023-12-20T22:29:18;29.15;;;6.15;;
73239;SDS011;61452;40.054;4.110;2023-12-20T22:34:20;27.27;;;6.35;;
73239;SDS011;61452;40.054;4.110;2023-12-20T22:39:23;26.77;;;6.05;;
73239;SDS011;61452;40.054;4.110;2023-12-20T22:44:25;26.80;;;6.40;;
73239;SDS011;61452;40.054;4.110;2023-12-20T22:49:27;30.60;;;6.57;;
73239;SDS011;61452;40.054;4.110;2023-12-20T22:54:29;26.10;;;6.95;;
73239;SDS011;61452;40.054;4.110;2023-12-20T22:59:31;31.90;;;7.95;;
73239;SDS011;61452;40.054;4.110;2023-12-20T23:04:33;29.92;;;6.95;;
73239;SDS011;61452;40.054;4.110;2023-12-20T23:09:36;30.02;;;7.25;;
73239;SDS011;61452;40.054;4.110;2023-12-20T23:14:40;39.35;;;7.57;;
73239;SDS011;61452;40.054;4.110;2023-12-20T23:19:42;37.25;;;7.50;;
73239;SDS011;61452;40.054;4.110;2023-12-20T23:24:44;33.03;;;6.70;;
73239;SDS011;61452;40.054;4.110;2023-12-20T23:29:48;32.65;;;6.60;;
73239;SDS011;61452;40.054;4.110;2023-12-20T23:34:50;34.58;;;7.05;;
73239;SDS011;61452;40.054;4.110;2023-12-20T23:45:14;24.90;;;6.32;;
73239;SDS011;61452;40.054;4.110;2023-12-20T23:50:16;32.10;;;6.35;;
73239;SDS011;61452;40.054;4.110;2023-12-20T23:55:19;33.47;;;6.43;;
